createdAt,value
2023-04-25T05:01:13.952Z,500.00
2023-04-25T05:02:13.973Z,500.00
2023-04-25T05:03:14.093Z,500.00
2023-04-25T05:04:14.231Z,500.00
2023-04-25T05:05:14.009Z,500.00
2023-04-25T05:06:14.038Z,500.00
2023-04-25T05:07:14.077Z,400.00
2023-04-25T05:08:14.095Z,400.00
2023-04-25T05:09:14.193Z,400.00
2023-04-25T05:10:14.225Z,400.00
2023-04-25T05:11:14.256Z,400.00
2023-04-25T05:12:14.268Z,400.00
2023-04-25T05:13:14.233Z,400.00
2023-04-25T05:14:14.278Z,400.00
2023-04-25T05:15:14.261Z,400.00
2023-04-25T05:16:14.260Z,400.00
2023-04-25T05:17:14.277Z,400.00
2023-04-25T05:18:14.310Z,400.00
2023-04-25T05:19:14.327Z,400.00
2023-04-25T05:20:14.336Z,400.00
2023-04-25T05:21:14.378Z,400.00
2023-04-25T05:22:14.424Z,400.00
2023-04-25T05:23:14.467Z,400.00
2023-04-25T05:24:14.546Z,400.00
2023-04-25T05:25:14.607Z,420.00
2023-04-25T05:26:14.858Z,455.00
2023-04-25T05:27:14.731Z,493.00
2023-04-25T05:28:14.795Z,500.00
2023-04-25T05:29:14.862Z,500.00
2023-04-25T05:30:14.930Z,500.00
2023-04-25T05:31:14.972Z,505.00
2023-04-25T05:32:15.170Z,500.00
2023-04-25T05:33:15.116Z,505.00
2023-04-25T05:34:15.122Z,485.00
2023-04-25T05:35:15.167Z,483.00
2023-04-25T05:36:15.116Z,500.00
2023-04-25T05:37:15.180Z,496.00
2023-04-25T05:38:15.181Z,508.00
2023-04-25T05:39:15.219Z,516.00
2023-04-25T05:40:15.301Z,522.00
2023-04-25T05:41:15.284Z,503.00
2023-04-25T05:42:15.329Z,466.00
2023-04-25T05:43:15.325Z,503.00
2023-04-25T05:44:15.369Z,500.00
2023-04-25T05:45:15.394Z,501.00
2023-04-25T05:46:15.463Z,530.00
2023-04-25T05:47:15.533Z,541.00
2023-04-25T05:48:15.656Z,585.00
2023-04-25T05:49:17.564Z,564.00
2023-04-25T05:50:15.629Z,586.00
2023-04-25T05:51:15.604Z,599.00
2023-04-25T05:52:15.602Z,601.00
2023-04-25T05:53:15.625Z,597.00
2023-04-25T05:54:15.568Z,627.00
2023-04-25T05:55:15.599Z,602.00
2023-04-25T05:56:15.587Z,522.00
2023-04-25T05:57:15.578Z,527.00
2023-04-25T05:58:15.555Z,505.00
2023-04-25T05:59:15.606Z,531.00
2023-04-25T06:00:15.531Z,509.00
2023-04-25T06:01:15.519Z,558.00
2023-04-25T06:02:15.592Z,639.00
2023-04-25T06:03:17.785Z,623.00
2023-04-25T06:04:15.613Z,623.00
2023-04-25T06:05:15.667Z,614.00
2023-04-25T06:06:15.512Z,616.00
2023-04-25T06:07:15.472Z,620.00
2023-04-25T06:08:15.476Z,627.00
2023-04-25T06:09:15.456Z,681.00
2023-04-25T06:10:15.495Z,703.00
2023-04-25T06:11:15.475Z,685.00
2023-04-25T06:12:15.420Z,692.00
2023-04-25T06:13:15.440Z,734.00
2023-04-25T06:14:15.451Z,712.00
2023-04-25T06:15:27.221Z,742.00
2023-04-25T06:16:16.464Z,745.00
2023-04-25T06:17:15.426Z,751.00
2023-04-25T06:18:15.399Z,757.00
2023-04-25T06:19:15.373Z,765.00
2023-04-25T06:20:15.418Z,827.00
2023-04-25T06:21:15.386Z,831.00
2023-04-25T06:22:15.370Z,859.00
2023-04-25T06:23:15.360Z,874.00
2023-04-25T06:24:15.355Z,852.00
2023-04-25T06:25:15.362Z,887.00
2023-04-25T06:26:15.344Z,893.00
2023-04-25T06:27:17.076Z,859.00
2023-04-25T06:28:15.339Z,896.00
2023-04-25T06:29:15.355Z,872.00
2023-04-25T06:30:15.326Z,909.00
2023-04-25T06:31:15.373Z,852.00
2023-04-25T06:32:15.305Z,862.00
2023-04-25T06:33:15.344Z,850.00
2023-04-25T06:34:15.374Z,826.00
2023-04-25T06:35:15.420Z,872.00
2023-04-25T06:36:15.452Z,840.00
2023-04-25T06:37:15.504Z,886.00
2023-04-25T06:38:15.579Z,894.00
2023-04-25T06:39:15.639Z,873.00
2023-04-25T06:40:15.712Z,864.00
2023-04-25T06:41:15.686Z,874.00
2023-04-25T06:42:15.722Z,900.00
2023-04-25T06:43:15.800Z,881.00
2023-04-25T06:44:15.802Z,871.00
2023-04-25T06:45:15.836Z,844.00
2023-04-25T06:46:15.923Z,882.00
2023-04-25T06:47:15.871Z,891.00
2023-04-25T06:48:15.899Z,872.00
2023-04-25T06:49:15.909Z,857.00
2023-04-25T06:50:15.929Z,842.00
2023-04-25T06:51:15.947Z,840.00
2023-04-25T06:52:16.049Z,844.00
2023-04-25T06:53:16.025Z,815.00
2023-04-25T06:54:16.015Z,828.00
2023-04-25T06:55:16.058Z,873.00
2023-04-25T06:56:16.054Z,897.00
2023-04-25T06:57:16.076Z,869.00
2023-04-25T06:58:16.077Z,823.00
2023-04-25T06:59:16.065Z,827.00
2023-04-25T07:00:16.256Z,854.00
2023-04-25T07:01:16.117Z,902.00
2023-04-25T07:02:16.191Z,837.00
2023-04-25T07:03:16.236Z,830.00
2023-04-25T07:04:16.265Z,834.00
2023-04-25T07:05:17.492Z,822.00
2023-04-25T07:06:16.103Z,850.00
2023-04-25T07:07:16.071Z,851.00
2023-04-25T07:08:16.085Z,829.00
2023-04-25T07:09:16.053Z,863.00
2023-04-25T07:10:16.070Z,835.00
2023-04-25T07:11:16.059Z,866.00
2023-04-25T07:12:16.057Z,858.00
2023-04-25T07:13:16.046Z,901.00
2023-04-25T07:14:16.067Z,896.00
2023-04-25T07:15:16.031Z,879.00
2023-04-25T07:16:16.034Z,898.00
2023-04-25T07:17:16.025Z,897.00
2023-04-25T07:18:16.004Z,892.00
2023-04-25T07:19:16.034Z,906.00
2023-04-25T07:20:15.991Z,866.00
2023-04-25T07:21:16.013Z,849.00
2023-04-25T07:22:16.009Z,860.00
2023-04-25T07:23:15.982Z,854.00
2023-04-25T07:24:15.996Z,828.00
2023-04-25T07:25:15.936Z,855.00
2023-04-25T07:26:15.964Z,888.00
2023-04-25T07:27:15.944Z,823.00
2023-04-25T07:28:18.063Z,837.00
2023-04-25T07:29:15.939Z,837.00
2023-04-25T07:30:15.923Z,809.00
2023-04-25T07:31:15.899Z,790.00
2023-04-25T07:32:15.990Z,841.00
2023-04-25T07:33:15.996Z,843.00
2023-04-25T07:34:15.900Z,830.00
2023-04-25T07:35:15.909Z,870.00
2023-04-25T07:36:15.933Z,834.00
2023-04-25T07:37:15.871Z,854.00
2023-04-25T07:38:15.871Z,859.00
2023-04-25T07:39:15.890Z,838.00
2023-04-25T07:40:15.854Z,834.00
2023-04-25T07:41:15.880Z,605.00
2023-04-25T07:42:15.842Z,459.00
2023-04-25T07:43:15.846Z,517.00
2023-04-25T07:44:15.890Z,485.00
2023-04-25T07:45:15.806Z,548.00
2023-04-25T07:46:15.893Z,500.00
2023-04-25T07:47:15.818Z,540.00
2023-04-25T07:48:15.822Z,579.00
2023-04-25T07:49:15.820Z,603.00
2023-04-25T07:50:15.776Z,601.00
2023-04-25T07:51:15.784Z,633.00
2023-04-25T07:52:15.995Z,635.00
2023-04-25T07:53:15.739Z,646.00
2023-04-25T07:54:15.746Z,650.00
2023-04-25T07:55:15.753Z,632.00
2023-04-25T07:56:15.754Z,629.00
2023-04-25T07:57:15.748Z,642.00
2023-04-25T07:58:15.724Z,515.00
2023-04-25T07:59:15.723Z,493.00
2023-04-25T08:00:15.712Z,500.00
2023-04-25T08:01:15.706Z,547.00
2023-04-25T08:02:15.815Z,630.00
2023-04-25T08:03:15.953Z,881.00
2023-04-25T08:04:15.876Z,928.00
2023-04-25T08:05:16.231Z,1130.00
2023-04-25T08:06:15.891Z,1252.00
2023-04-25T08:07:15.653Z,1256.00
2023-04-25T08:08:15.633Z,1364.00
2023-04-25T08:09:15.697Z,1358.00
2023-04-25T08:10:15.681Z,1343.00
2023-04-25T08:11:15.635Z,1391.00
2023-04-25T08:12:15.668Z,1395.00
2023-04-25T08:13:15.659Z,1406.00
2023-04-25T08:14:15.645Z,1421.00
2023-04-25T08:15:15.635Z,1322.00
2023-04-25T08:16:15.691Z,1405.00
2023-04-25T08:17:15.627Z,1433.00
2023-04-25T08:18:17.604Z,1467.00
2023-04-25T08:19:15.595Z,1379.00
2023-04-25T08:20:15.637Z,1370.00
2023-04-25T08:21:15.660Z,1309.00
2023-04-25T08:22:15.638Z,1348.00
2023-04-25T08:23:15.689Z,1408.00
2023-04-25T08:24:15.705Z,1420.00
2023-04-25T08:25:15.740Z,1215.00
2023-04-25T08:26:15.750Z,1379.00
2023-04-25T08:27:15.800Z,1393.00
2023-04-25T08:28:15.833Z,1063.00
2023-04-25T08:29:15.826Z,1039.00
2023-04-25T08:30:15.841Z,1181.00
2023-04-25T08:31:15.911Z,1001.00
2023-04-25T08:32:15.893Z,830.00
2023-04-25T08:33:15.995Z,728.00
2023-04-25T08:34:15.992Z,842.00
2023-04-25T08:35:16.028Z,1047.00
2023-04-25T08:36:24.511Z,1186.00
2023-04-25T08:37:17.290Z,1189.00
2023-04-25T08:38:16.066Z,1205.00
2023-04-25T08:39:16.062Z,1236.00
2023-04-25T08:40:16.033Z,1321.00
2023-04-25T08:41:16.050Z,1449.00
2023-04-25T08:42:16.035Z,1501.00
2023-04-25T08:43:16.060Z,1545.00
2023-04-25T08:44:16.030Z,1607.00
2023-04-25T08:45:16.018Z,1662.00
2023-04-25T08:46:16.040Z,1715.00
2023-04-25T08:47:15.977Z,1744.00
2023-04-25T08:48:16.001Z,1795.00
2023-04-25T08:49:15.991Z,1797.00
2023-04-25T08:50:16.072Z,1838.00
2023-04-25T08:51:16.106Z,1866.00
2023-04-25T08:52:16.151Z,1855.00
2023-04-25T08:53:16.180Z,1866.00
2023-04-25T08:54:30.642Z,1902.00
2023-04-25T08:55:17.168Z,1903.00
2023-04-25T08:56:16.191Z,1909.00
2023-04-25T08:57:16.216Z,1916.00
2023-04-25T08:58:16.165Z,1133.00
2023-04-25T08:59:16.197Z,760.00
2023-04-25T09:00:16.142Z,638.00
2023-04-25T09:01:16.217Z,616.00
2023-04-25T09:02:16.278Z,628.00
2023-04-25T09:03:16.399Z,611.00
2023-04-25T09:04:16.286Z,578.00
2023-04-25T09:05:16.349Z,575.00
2023-04-25T09:06:16.119Z,562.00
2023-04-25T09:07:16.114Z,548.00
2023-04-25T09:08:16.109Z,573.00
2023-04-25T09:09:16.084Z,545.00
2023-04-25T09:10:16.155Z,528.00
2023-04-25T09:11:16.118Z,503.00
2023-04-25T09:12:16.081Z,605.00
2023-04-25T09:13:16.105Z,782.00
2023-04-25T09:14:16.127Z,859.00
2023-04-25T09:16:16.111Z,516.00
2023-04-25T09:17:16.069Z,852.00
2023-04-25T09:18:16.119Z,937.00
2023-04-25T09:19:16.132Z,667.00
2023-04-25T09:20:16.073Z,801.00
2023-04-25T09:21:16.073Z,1034.00
2023-04-25T09:22:16.141Z,1101.00
2023-04-25T09:23:16.044Z,1136.00
2023-04-25T09:24:16.006Z,1236.00
2023-04-25T09:25:16.062Z,1141.00
2023-04-25T09:26:16.036Z,1247.00
2023-04-25T09:27:16.025Z,1302.00
2023-04-25T09:28:16.042Z,1262.00
2023-04-25T09:29:16.011Z,1329.00
2023-04-25T09:30:16.028Z,1394.00
2023-04-25T09:31:15.960Z,1428.00
2023-04-25T09:32:16.224Z,1469.00
2023-04-25T09:33:16.028Z,1523.00
2023-04-25T09:34:15.993Z,1528.00
2023-04-25T09:35:15.946Z,1610.00
2023-04-25T09:36:15.952Z,1602.00
2023-04-25T09:37:15.985Z,1645.00
2023-04-25T09:38:15.953Z,1736.00
2023-04-25T09:39:15.926Z,1757.00
2023-04-25T09:40:16.010Z,1780.00
2023-04-25T09:41:17.903Z,1804.00
2023-04-25T09:42:15.909Z,1854.00
2023-04-25T09:43:15.873Z,1860.00
2023-04-25T09:44:15.920Z,1854.00
2023-04-25T09:45:15.885Z,1869.00
2023-04-25T09:46:15.897Z,1884.00
2023-04-25T09:47:15.866Z,1923.00
2023-04-25T09:48:15.894Z,1932.00
2023-04-25T09:49:15.962Z,1967.00
2023-04-25T09:50:16.000Z,1948.00
2023-04-25T09:51:16.056Z,1991.00
2023-04-25T09:52:16.088Z,1983.00
2023-04-25T09:53:16.139Z,1982.00
2023-04-25T09:54:16.164Z,1995.00
2023-04-25T09:55:16.183Z,2016.00
2023-04-25T09:56:16.209Z,1999.00
2023-04-25T09:57:16.320Z,2006.00
2023-04-25T09:58:16.289Z,2001.00
2023-04-25T09:59:16.332Z,2028.00
2023-04-25T10:00:16.462Z,2024.00
2023-04-25T10:01:16.478Z,2013.00
2023-04-25T10:02:16.434Z,2013.00
2023-04-25T10:03:16.603Z,2028.00
2023-04-25T10:04:16.583Z,2019.00
2023-04-25T10:05:16.759Z,2017.00
2023-04-25T10:06:16.540Z,2020.00
2023-04-25T10:07:16.540Z,2042.00
2023-04-25T10:08:16.551Z,2051.00
2023-04-25T10:09:16.555Z,2054.00
2023-04-25T10:10:16.612Z,2042.00
2023-04-25T10:11:16.612Z,2074.00
2023-04-25T10:12:16.656Z,2078.00
2023-04-25T10:13:16.600Z,2060.00
2023-04-25T10:14:16.650Z,2015.00
2023-04-25T10:15:16.683Z,1860.00
2023-04-25T10:16:16.744Z,1453.00
2023-04-25T10:17:16.726Z,1215.00
2023-04-25T10:18:16.815Z,1088.00
2023-04-25T10:19:16.881Z,963.00
2023-04-25T10:20:17.011Z,989.00
2023-04-25T10:21:16.930Z,1037.00
2023-04-25T10:22:17.001Z,1289.00
2023-04-25T10:23:17.037Z,1195.00
2023-04-25T10:24:17.041Z,1295.00
2023-04-25T10:25:17.108Z,1346.00
2023-04-25T10:26:17.179Z,1386.00
2023-04-25T10:27:17.199Z,1399.00
2023-04-25T10:28:17.243Z,1428.00
2023-04-25T10:29:17.309Z,1378.00
2023-04-25T10:30:17.650Z,1294.00
2023-04-25T10:31:17.477Z,1178.00
2023-04-25T10:32:17.507Z,1092.00
2023-04-25T10:33:17.532Z,1010.00
2023-04-25T10:34:17.558Z,960.00
2023-04-25T10:35:17.558Z,954.00
2023-04-25T10:36:17.622Z,1000.00
2023-04-25T10:37:17.759Z,920.00
2023-04-25T10:38:17.727Z,982.00
2023-04-25T10:39:17.768Z,1037.00
2023-04-25T10:40:17.788Z,1044.00
2023-04-25T10:41:17.816Z,1009.00
2023-04-25T10:42:17.853Z,1023.00
2023-04-25T10:43:17.875Z,1130.00
2023-04-25T10:44:17.914Z,1026.00
2023-04-25T10:45:17.963Z,987.00
2023-04-25T10:46:18.056Z,895.00
2023-04-25T10:47:17.997Z,928.00
2023-04-25T10:48:18.101Z,924.00
2023-04-25T10:49:18.092Z,967.00
2023-04-25T10:50:18.097Z,961.00
2023-04-25T10:51:18.134Z,929.00
2023-04-25T10:52:18.143Z,872.00
2023-04-25T10:53:18.177Z,868.00
2023-04-25T10:54:18.220Z,897.00
2023-04-25T10:55:18.251Z,1011.00
2023-04-25T10:56:18.258Z,1089.00
2023-04-25T10:57:18.262Z,1151.00
2023-04-25T10:58:18.280Z,1163.00
2023-04-25T10:59:18.291Z,1272.00
2023-04-25T11:00:18.317Z,1369.00
2023-04-25T11:01:18.361Z,1280.00
2023-04-25T11:02:18.588Z,1232.00
2023-04-25T11:03:18.535Z,1317.00
2023-04-25T11:04:18.709Z,1413.00
2023-04-25T11:05:20.935Z,1374.00
2023-04-25T11:06:18.510Z,1424.00
2023-04-25T11:07:18.498Z,1434.00
2023-04-25T11:08:18.477Z,1471.00
2023-04-25T11:09:18.493Z,1433.00
2023-04-25T11:10:18.456Z,1419.00
2023-04-25T11:11:18.474Z,1439.00
2023-04-25T11:12:18.526Z,1323.00
2023-04-25T11:13:18.445Z,1407.00
2023-04-25T11:14:18.455Z,1446.00
2023-04-25T11:15:18.418Z,1502.00
2023-04-25T11:17:19.458Z,1511.00
2023-04-25T11:18:18.453Z,1499.00
2023-04-25T11:19:18.420Z,1457.00
2023-04-25T11:20:18.386Z,1431.00
2023-04-25T11:21:18.376Z,1459.00
2023-04-25T11:22:18.373Z,1230.00
2023-04-25T11:23:18.424Z,1314.00
2023-04-25T11:24:18.356Z,1315.00
2023-04-25T11:25:18.364Z,1119.00
2023-04-25T11:26:18.360Z,803.00
2023-04-25T11:27:18.379Z,690.00
2023-04-25T11:28:18.428Z,593.00
2023-04-25T11:29:18.453Z,572.00
2023-04-25T11:30:18.409Z,640.00
2023-04-25T11:31:18.470Z,757.00
2023-04-25T11:32:19.446Z,826.00
2023-04-25T11:33:18.496Z,801.00
2023-04-25T11:34:18.460Z,828.00
2023-04-25T11:35:18.469Z,766.00
2023-04-25T11:36:18.413Z,726.00
2023-04-25T11:37:18.445Z,663.00
2023-04-25T11:38:18.413Z,657.00
2023-04-25T11:39:18.462Z,649.00
2023-04-25T11:40:18.510Z,684.00
2023-04-25T11:41:18.568Z,677.00
2023-04-25T11:42:18.523Z,679.00
2023-04-25T11:43:21.398Z,689.00
2023-04-25T11:44:18.501Z,662.00
2023-04-25T11:45:18.484Z,650.00
2023-04-25T11:46:18.505Z,818.00
2023-04-25T11:47:18.485Z,817.00
2023-04-25T11:48:19.164Z,767.00
2023-04-25T11:49:18.464Z,672.00
2023-04-25T11:50:18.441Z,662.00
2023-04-25T11:51:18.430Z,649.00
2023-04-25T11:52:18.429Z,663.00
2023-04-25T11:53:18.433Z,695.00
2023-04-25T11:54:18.463Z,757.00
2023-04-25T11:55:18.432Z,812.00
2023-04-25T11:56:18.433Z,835.00
2023-04-25T11:57:18.430Z,822.00
2023-04-25T11:58:18.398Z,964.00
2023-04-25T11:59:18.436Z,945.00
2023-04-25T12:00:19.274Z,981.00
2023-04-25T12:01:18.361Z,1018.00
2023-04-25T12:02:18.433Z,973.00
2023-04-25T12:03:18.486Z,1159.00
2023-04-25T12:04:18.668Z,1108.00
2023-04-25T12:06:19.391Z,628.00
2023-04-25T12:07:18.359Z,701.00
2023-04-25T12:08:18.318Z,721.00
2023-04-25T12:09:18.317Z,769.00
2023-04-25T12:10:18.355Z,988.00
2023-04-25T12:11:18.333Z,1103.00
2023-04-25T12:12:18.306Z,1164.00
2023-04-25T12:13:18.377Z,1169.00
2023-04-25T12:14:18.299Z,1183.00
2023-04-25T12:15:18.306Z,1204.00
2023-04-25T12:16:18.337Z,1186.00
2023-04-25T12:17:18.259Z,1315.00
2023-04-25T12:18:18.310Z,1138.00
2023-04-25T12:19:18.291Z,1198.00
2023-04-25T12:20:18.261Z,1137.00
2023-04-25T12:21:18.239Z,1146.00
2023-04-25T12:22:18.244Z,1003.00
2023-04-25T12:23:18.236Z,910.00
2023-04-25T12:24:18.187Z,980.00
2023-04-25T12:25:18.235Z,735.00
2023-04-25T12:26:18.230Z,617.00
2023-04-25T12:27:18.211Z,823.00
2023-04-25T12:28:18.219Z,822.00
2023-04-25T12:29:18.195Z,794.00
2023-04-25T12:30:18.171Z,846.00
2023-04-25T12:31:18.175Z,951.00
2023-04-25T12:32:18.241Z,854.00
2023-04-25T12:33:18.210Z,632.00
2023-04-25T12:34:18.180Z,645.00
2023-04-25T12:35:18.151Z,627.00
2023-04-25T12:36:18.172Z,744.00
2023-04-25T12:37:18.150Z,672.00
2023-04-25T12:38:18.139Z,838.00
2023-04-25T12:39:18.088Z,921.00
2023-04-25T12:40:18.096Z,842.00
2023-04-25T12:41:18.116Z,989.00
2023-04-25T12:42:18.118Z,873.00
2023-04-25T12:43:18.114Z,930.00
2023-04-25T12:44:18.119Z,1027.00
2023-04-25T12:45:18.292Z,1007.00
2023-04-25T12:46:18.243Z,1017.00
2023-04-25T12:47:18.278Z,1063.00
2023-04-25T12:48:18.305Z,1036.00
2023-04-25T12:49:19.383Z,1059.00
2023-04-25T12:50:18.437Z,1000.00
2023-04-25T12:51:18.479Z,982.00
2023-04-25T12:52:18.517Z,773.00
2023-04-25T12:53:18.569Z,497.00
2023-04-25T12:54:18.608Z,426.00
2023-04-25T12:55:18.578Z,485.00
2023-04-25T12:56:18.982Z,570.00
2023-04-25T12:57:18.584Z,819.00
2023-04-25T12:58:18.638Z,958.00
2023-04-25T12:59:18.590Z,865.00
2023-04-25T13:00:18.608Z,408.00
2023-04-25T13:01:18.657Z,452.00
2023-04-25T13:02:18.825Z,522.00
2023-04-25T13:03:18.876Z,479.00
2023-04-25T13:04:18.897Z,449.00
2023-04-25T13:05:18.774Z,501.00
2023-04-25T13:06:18.790Z,697.00
2023-04-25T13:07:18.804Z,1068.00
2023-04-25T13:08:18.828Z,1182.00
2023-04-25T13:09:18.825Z,1223.00
2023-04-25T13:10:18.862Z,1259.00
2023-04-25T13:11:18.907Z,1321.00
2023-04-25T13:12:19.000Z,1286.00
2023-04-25T13:13:19.017Z,1291.00
2023-04-25T13:14:19.027Z,1329.00
2023-04-25T13:15:19.102Z,1363.00
2023-04-25T13:16:19.144Z,1365.00
2023-04-25T13:17:19.217Z,1364.00
2023-04-25T13:18:19.137Z,1383.00
2023-04-25T13:19:19.130Z,1362.00
2023-04-25T13:20:19.108Z,1398.00
2023-04-25T13:21:19.113Z,1486.00
2023-04-25T13:22:19.149Z,1632.00
2023-04-25T13:23:19.160Z,1617.00
2023-04-25T13:24:19.161Z,1589.00
2023-04-25T13:25:19.219Z,1538.00
2023-04-25T13:26:19.209Z,814.00
2023-04-25T13:27:19.211Z,643.00
2023-04-25T13:28:19.223Z,594.00
2023-04-25T13:29:19.306Z,999.00
2023-04-25T13:30:19.326Z,1245.00
2023-04-25T13:31:19.428Z,1302.00
2023-04-25T13:32:19.451Z,1322.00
2023-04-25T13:33:19.392Z,1226.00
2023-04-25T13:34:19.383Z,1295.00
2023-04-25T13:35:19.372Z,1325.00
2023-04-25T13:36:19.426Z,1350.00
2023-04-25T13:37:19.358Z,1453.00
2023-04-25T13:38:19.399Z,1427.00
2023-04-25T13:39:19.428Z,1430.00
2023-04-25T13:40:19.509Z,1528.00
2023-04-25T13:41:19.539Z,1512.00
2023-04-25T13:42:19.640Z,1529.00
2023-04-25T13:43:19.621Z,1548.00
2023-04-25T13:44:19.680Z,1587.00
2023-04-25T13:45:19.757Z,1718.00
2023-04-25T13:46:40.910Z,1659.00
2023-04-25T13:47:20.818Z,1659.00
2023-04-25T13:48:19.830Z,1631.00
2023-04-25T13:49:19.774Z,1638.00
2023-04-25T13:50:19.769Z,1696.00
2023-04-25T13:51:19.795Z,1703.00
2023-04-25T13:52:19.748Z,1784.00
2023-04-25T13:53:19.714Z,1837.00
2023-04-25T13:54:19.744Z,1877.00
2023-04-25T13:55:19.710Z,1887.00
2023-04-25T13:56:19.843Z,1890.00
2023-04-25T13:57:19.688Z,1909.00
2023-04-25T13:58:19.777Z,1829.00
2023-04-25T13:59:19.830Z,1669.00
2023-04-25T14:00:19.841Z,1691.00
2023-04-25T14:01:19.934Z,1770.00
2023-04-25T14:02:19.951Z,1782.00
2023-04-25T14:03:20.046Z,1869.00
2023-04-25T14:04:20.064Z,1868.00
2023-04-25T14:05:20.050Z,1879.00
2023-04-25T14:06:20.080Z,1916.00
2023-04-25T14:07:20.116Z,1957.00
2023-04-25T14:08:20.159Z,1994.00
2023-04-25T14:09:20.204Z,2061.00
2023-04-25T14:10:20.210Z,2076.00
2023-04-25T14:11:20.236Z,2060.00
2023-04-25T14:12:20.309Z,2108.00
2023-04-25T14:13:20.295Z,2080.00
2023-04-25T14:14:20.349Z,2093.00
2023-04-25T14:15:20.343Z,2126.00
2023-04-25T14:16:20.431Z,2175.00
2023-04-25T14:17:20.425Z,2154.00
2023-04-25T14:18:20.417Z,2298.00
2023-04-25T14:19:22.128Z,2342.00
2023-04-25T14:20:20.470Z,2344.00
2023-04-25T14:21:20.448Z,2332.00
2023-04-25T14:22:20.488Z,2348.00
2023-04-25T14:23:20.469Z,2433.00
2023-04-25T14:24:20.515Z,2449.00
2023-04-25T14:25:20.493Z,2455.00
2023-04-25T14:26:20.480Z,2451.00
2023-04-25T14:27:20.465Z,2500.00
2023-04-25T14:28:20.484Z,2524.00
2023-04-25T14:29:20.470Z,2533.00
2023-04-25T14:30:20.496Z,2553.00
2023-04-25T14:31:20.523Z,2582.00
2023-04-25T14:32:20.475Z,2618.00
2023-04-25T14:33:20.467Z,2634.00
2023-04-25T14:34:20.474Z,2645.00
2023-04-25T14:35:20.473Z,2677.00
2023-04-25T14:36:20.509Z,2675.00
2023-04-25T14:37:20.546Z,2702.00
2023-04-25T14:38:20.460Z,2743.00
2023-04-25T14:39:20.486Z,2709.00
2023-04-25T14:40:20.500Z,2706.00
2023-04-25T14:41:20.515Z,2720.00
2023-04-25T14:42:20.591Z,2725.00
2023-04-25T14:43:20.618Z,2732.00
2023-04-25T14:44:20.694Z,2752.00
2023-04-25T14:45:20.733Z,2732.00
2023-04-25T14:46:20.845Z,2723.00
2023-04-25T14:47:20.901Z,2736.00
2023-04-25T14:48:21.076Z,2748.00
2023-04-25T14:49:21.000Z,2751.00
2023-04-25T14:50:21.044Z,2772.00
2023-04-25T14:51:21.109Z,2773.00
2023-04-25T14:52:21.268Z,2819.00
2023-04-25T14:53:21.228Z,2811.00
2023-04-25T14:54:21.262Z,2391.00
2023-04-25T14:55:21.366Z,1697.00
2023-04-25T14:56:21.370Z,1482.00
2023-04-25T14:57:21.359Z,1420.00
2023-04-25T14:58:21.385Z,1331.00
2023-04-25T14:59:21.421Z,1900.00
2023-04-25T15:00:21.417Z,2343.00
2023-04-25T15:01:21.582Z,2668.00
2023-04-25T15:02:21.456Z,2761.00
2023-04-25T15:03:21.585Z,2734.00
2023-04-25T15:04:21.532Z,2722.00
2023-04-25T15:05:21.450Z,2743.00
2023-04-25T15:06:21.459Z,3043.00
2023-04-25T15:07:21.443Z,3141.00
2023-04-25T15:08:21.441Z,3031.00
2023-04-25T15:09:21.825Z,3067.00
2023-04-25T15:10:21.462Z,3057.00
2023-04-25T15:11:21.450Z,3074.00
2023-04-25T15:12:21.512Z,3058.00
2023-04-25T15:13:21.439Z,3006.00
2023-04-25T15:14:21.437Z,3020.00
2023-04-25T15:15:26.496Z,3091.00
2023-04-25T15:16:22.443Z,3071.00
2023-04-25T15:17:21.465Z,3095.00
2023-04-25T15:18:21.435Z,3077.00
2023-04-25T15:19:21.398Z,3045.00
2023-04-25T15:20:21.422Z,3063.00
2023-04-25T15:21:21.355Z,3066.00
2023-04-25T15:22:21.377Z,3029.00
2023-04-25T15:23:21.402Z,3046.00
2023-04-25T15:24:21.382Z,3036.00
2023-04-25T15:25:21.430Z,3065.00
2023-04-25T15:26:21.325Z,3047.00
2023-04-25T15:27:21.371Z,3024.00
2023-04-25T15:28:21.356Z,2992.00
2023-04-25T15:29:21.361Z,3029.00
2023-04-25T15:30:21.320Z,2993.00
2023-04-25T15:31:21.334Z,3016.00
2023-04-25T15:32:21.365Z,3044.00
2023-04-25T15:33:21.322Z,3043.00
2023-04-25T15:34:21.304Z,3066.00
2023-04-25T15:35:21.280Z,3054.00
2023-04-25T15:36:21.279Z,3043.00
2023-04-25T15:37:21.267Z,3042.00
2023-04-25T15:38:21.266Z,3058.00
2023-04-25T15:39:21.237Z,3056.00
2023-04-25T15:40:21.260Z,3050.00
2023-04-25T15:41:21.246Z,3033.00
2023-04-25T15:42:21.253Z,3013.00
2023-04-25T15:43:21.209Z,3023.00
2023-04-25T15:44:21.213Z,3013.00
2023-04-25T15:45:21.200Z,3025.00
2023-04-25T15:46:21.319Z,3006.00
2023-04-25T15:47:21.192Z,3037.00
2023-04-25T15:48:21.205Z,3011.00
2023-04-25T15:49:21.171Z,3024.00
2023-04-25T15:50:21.160Z,3008.00
2023-04-25T15:51:21.154Z,3011.00
2023-04-25T15:52:21.133Z,3020.00
2023-04-25T15:53:21.164Z,3011.00
2023-04-25T15:54:21.171Z,3007.00
2023-04-25T15:55:21.157Z,2990.00
2023-04-25T15:56:21.148Z,2992.00
2023-04-25T15:57:21.169Z,2997.00
2023-04-25T15:58:21.122Z,2998.00
2023-04-25T15:59:21.078Z,2986.00
2023-04-25T16:00:21.088Z,2989.00
2023-04-25T16:01:21.109Z,2983.00
2023-04-25T16:02:21.105Z,2958.00
2023-04-25T16:03:21.169Z,2942.00
2023-04-25T16:04:21.223Z,2966.00
2023-04-25T16:05:21.105Z,2962.00
2023-04-25T16:06:21.069Z,2961.00
2023-04-25T16:07:21.076Z,2966.00
2023-04-25T16:08:21.074Z,2942.00
2023-04-25T16:09:21.087Z,2946.00
2023-04-25T16:10:21.096Z,2931.00
2023-04-25T16:11:21.053Z,2941.00
2023-04-25T16:12:21.050Z,2937.00
2023-04-25T16:13:21.073Z,2927.00
2023-04-25T16:14:21.044Z,2943.00
2023-04-25T16:15:21.039Z,2937.00
2023-04-25T16:16:21.089Z,2919.00
2023-04-25T16:17:21.026Z,2920.00
2023-04-25T16:18:21.091Z,2909.00
2023-04-25T16:19:21.060Z,2908.00
2023-04-25T16:20:21.052Z,2912.00
2023-04-25T16:21:21.047Z,2917.00
2023-04-25T16:22:21.042Z,2909.00
2023-04-25T16:23:21.055Z,2901.00
2023-04-25T16:24:21.036Z,2902.00
2023-04-25T16:25:21.057Z,2894.00
2023-04-25T16:26:21.036Z,2881.00
2023-04-25T16:27:21.072Z,2887.00
2023-04-25T16:28:21.052Z,2891.00
2023-04-25T16:29:21.089Z,2882.00
2023-04-25T16:30:21.053Z,2870.00
2023-04-25T16:31:21.152Z,2873.00
2023-04-25T16:32:21.050Z,2880.00
2023-04-25T16:33:21.111Z,2860.00
2023-04-25T16:34:21.040Z,2861.00
2023-04-25T16:35:21.077Z,2879.00
2023-04-25T16:36:21.053Z,2841.00
2023-04-25T16:37:21.048Z,2843.00
2023-04-25T16:38:21.055Z,2864.00
2023-04-25T16:39:21.058Z,2834.00
2023-04-25T16:40:21.050Z,2862.00
2023-04-25T16:41:21.063Z,2835.00
2023-04-25T16:42:21.102Z,2840.00
2023-04-25T16:43:21.074Z,2832.00
2023-04-25T16:44:21.062Z,2836.00
2023-04-25T16:45:21.056Z,2811.00
2023-04-25T16:46:21.099Z,2799.00
2023-04-25T16:47:21.101Z,2814.00
2023-04-25T16:48:21.062Z,2838.00
2023-04-25T16:49:21.060Z,2782.00
2023-04-25T16:50:21.028Z,2811.00
2023-04-25T16:51:21.033Z,2789.00
2023-04-25T16:52:21.100Z,2803.00
2023-04-25T16:53:21.043Z,2811.00
2023-04-25T16:54:21.068Z,2792.00
2023-04-25T16:55:21.069Z,2793.00
2023-04-25T16:56:21.074Z,2764.00
2023-04-25T16:57:21.156Z,2739.00
2023-04-25T16:58:21.096Z,2753.00
2023-04-25T16:59:21.073Z,2750.00
2023-04-25T17:00:21.109Z,2745.00
